Estestar — 3ECR8 — position and weather

sailwx.info

Track history (hours):
 
Tides and Currents Weather Stations Pressure Air Temp Water Temp Dewpoint Dewpoint Depression Visibility Wind Speed Wind Dir Waves Ship Positions

Estestar

Last reported at 2017-Aug-13 14:32 UTC. Time now 2017-Aug-18 04:47 UTC.
Position N 44°56' E 036°28'.

Length 133 m; draft 7.5 m.

Type: Cargo ship. MMSI: 371448000.

Date/timePositionNaut miles runAvg speedWind from/ knotsBaromVisibWave heightAir tempDewpointWater temp
2017-Aug-13 14:32N 44°56' E 036°28'010.2
2017-Aug-13 14:30N 44°57' E 036°28'14 9.6
2017-Aug-13 13:01N 45°11' E 036°28'1 8.9
2017-Aug-13 12:56N 45°12' E 036°28'3 7.6
2017-Aug-13 12:30N 45°15' E 036°27'4 7.2
2017-Aug-13 11:57N 45°19' E 036°30'4 8.5
2017-Aug-13 11:30N 45°20' E 036°35'4 7.9
2017-Aug-13 11:00N 45°22' E 036°40'4 8.1
2017-Aug-13 10:30N 45°26' E 036°41'3 6.7
2017-Aug-13 10:00N 45°29' E 036°38'1 1.3
2017-Aug-13 09:17N 45°29' E 036°37'0 0.0
2017-Aug-13 08:55N 45°29' E 036°37'0 0.0
2017-Aug-13 01:23N 45°29' E 036°37'2 4.5
2017-Aug-13 01:00N 45°31' E 036°38'  
2017-Aug-09 22:21N 45°38' E 036°45'610.2
2017-Aug-09 21:44N 45°31' E 036°45'310.1
2017-Aug-09 21:28N 45°29' E 036°43'510.2
2017-Aug-09 21:00N 45°24' E 036°41'4 8.8
2017-Aug-09 20:30N 45°21' E 036°37'510.3
2017-Aug-09 20:01N 45°19' E 036°31'4 7.9
2017-Aug-09 19:30N 45°15' E 036°28'4 1.4
2017-Aug-09 16:14N 45°11' E 036°29'0 0.0
2017-Aug-09 14:36N 45°11' E 036°29'0 0.0
2017-Aug-09 13:23N 45°11' E 036°29'0 0.0
2017-Aug-09 06:40N 45°11' E 036°29'1 3.3
2017-Aug-09 06:23N 45°10' E 036°30'414 9.5
2017-Aug-07 10:53N 40°59' E 028°60'3 7.1
2017-Aug-07 10:30N 40°56' E 028°59'4 5.8
2017-Aug-07 09:48N 40°57' E 028°54'0 0.0
2017-Aug-06 18:02N 40°57' E 028°54'0 0.1
2017-Aug-06 17:56N 40°57' E 028°54'0 0.0
2017-Aug-06 17:08N 40°57' E 028°54'0 0.0
2017-Aug-06 16:56N 40°57' E 028°54'0 0.0
2017-Aug-06 15:26N 40°57' E 028°54'0 0.0
2017-Aug-06 14:56N 40°57' E 028°54'0 0.0
2017-Aug-06 14:26N 40°57' E 028°54'0 0.0
2017-Aug-06 13:56N 40°57' E 028°54'0 0.0
2017-Aug-05 20:02N 40°57' E 028°54'0 0.0
2017-Aug-05 19:56N 40°57' E 028°54'0 0.0
2017-Aug-05 17:14N 40°57' E 028°54'0 0.0
2017-Aug-05 16:44N 40°57' E 028°54'0 0.0
2017-Aug-05 15:20N 40°57' E 028°54'0 0.1
2017-Aug-05 13:57N 40°57' E 028°54'2 4.2
2017-Aug-05 13:27N 40°57' E 028°57'4 8.0
2017-Aug-05 13:00N 40°53' E 028°55'510.0
2017-Aug-05 12:31N 40°49' E 028°52'  
Track history (hours):
 
Tides and Currents Weather Stations Pressure Air Temp Water Temp Dewpoint Dewpoint Depression Visibility Wind Speed Wind Dir Waves Ship Positions

Estestar

Last reported at 2017-Aug-13 14:32 UTC. Time now 2017-Aug-18 04:47 UTC.
Position N 44°56' E 036°28'.

Length 133 m; draft 7.5 m.

Type: Cargo ship. MMSI: 371448000.

Date/timePositionNaut miles runAvg speedWind from/ knotsBaromVisibWave heightAir tempDewpointWater temp
2017-Aug-13 14:32N 44°56' E 036°28'010.2
2017-Aug-13 14:30N 44°57' E 036°28'14 9.6
2017-Aug-13 13:01N 45°11' E 036°28'1 8.9
2017-Aug-13 12:56N 45°12' E 036°28'3 7.6
2017-Aug-13 12:30N 45°15' E 036°27'4 7.2
2017-Aug-13 11:57N 45°19' E 036°30'4 8.5
2017-Aug-13 11:30N 45°20' E 036°35'4 7.9
2017-Aug-13 11:00N 45°22' E 036°40'4 8.1
2017-Aug-13 10:30N 45°26' E 036°41'3 6.7
2017-Aug-13 10:00N 45°29' E 036°38'1 1.3
2017-Aug-13 09:17N 45°29' E 036°37'0 0.0
2017-Aug-13 08:55N 45°29' E 036°37'0 0.0
2017-Aug-13 01:23N 45°29' E 036°37'2 4.5
2017-Aug-13 01:00N 45°31' E 036°38'  
2017-Aug-09 22:21N 45°38' E 036°45'610.2
2017-Aug-09 21:44N 45°31' E 036°45'310.1
2017-Aug-09 21:28N 45°29' E 036°43'510.2
2017-Aug-09 21:00N 45°24' E 036°41'4 8.8
2017-Aug-09 20:30N 45°21' E 036°37'510.3
2017-Aug-09 20:01N 45°19' E 036°31'4 7.9
2017-Aug-09 19:30N 45°15' E 036°28'4 1.4
2017-Aug-09 16:14N 45°11' E 036°29'0 0.0
2017-Aug-09 14:36N 45°11' E 036°29'0 0.0
2017-Aug-09 13:23N 45°11' E 036°29'0 0.0
2017-Aug-09 06:40N 45°11' E 036°29'1 3.3
2017-Aug-09 06:23N 45°10' E 036°30'414 9.5
2017-Aug-07 10:53N 40°59' E 028°60'3 7.1
2017-Aug-07 10:30N 40°56' E 028°59'4 5.8
2017-Aug-07 09:48N 40°57' E 028°54'0 0.0
2017-Aug-06 18:02N 40°57' E 028°54'0 0.1
2017-Aug-06 17:56N 40°57' E 028°54'0 0.0
2017-Aug-06 17:08N 40°57' E 028°54'0 0.0
2017-Aug-06 16:56N 40°57' E 028°54'0 0.0
2017-Aug-06 15:26N 40°57' E 028°54'0 0.0
2017-Aug-06 14:56N 40°57' E 028°54'0 0.0
2017-Aug-06 14:26N 40°57' E 028°54'0 0.0
2017-Aug-06 13:56N 40°57' E 028°54'0 0.0
2017-Aug-05 20:02N 40°57' E 028°54'0 0.0
2017-Aug-05 19:56N 40°57' E 028°54'0 0.0
2017-Aug-05 17:14N 40°57' E 028°54'0 0.0
2017-Aug-05 16:44N 40°57' E 028°54'0 0.0
2017-Aug-05 15:20N 40°57' E 028°54'0 0.1
2017-Aug-05 13:57N 40°57' E 028°54'2 4.2
2017-Aug-05 13:27N 40°57' E 028°57'4 8.0
2017-Aug-05 13:00N 40°53' E 028°55'510.0
2017-Aug-05 12:31N 40°49' E 028°52'  

Dump ship's entire track history